Time;durP1;ratioP1;P1;durP2;ratioP2;P2;SDS_P1;SDS_P2;PMS_P1;PMS_P2;Temp;Humidity;BMP_temperature;BMP_pressure;BME280_temperature;BME280_humidity;BME280_pressure;Samples;Min_cycle;Max_cycle;Signal;HPM_P1;HPM_P2
2023/01/04 00:01:28;;;;;;;8.60;2.45;;;8.10;99.90;;;;;;5052696;28;20062;-71
2023/01/04 00:03:54;;;;;;;7.05;2.20;;;8.10;99.90;;;;;;5069494;28;20037;-72
2023/01/04 00:06:20;;;;;;;5.63;1.95;;;8.10;99.90;;;;;;5067782;28;20486;-69
2023/01/04 00:08:45;;;;;;;6.53;2.13;;;8.10;99.90;;;;;;5068407;28;20143;-70
2023/01/04 00:11:14;;;;;;;8.98;2.60;;;8.10;99.90;;;;;;5068023;28;20044;-70
2023/01/04 00:13:40;;;;;;;5.95;2.45;;;8.10;99.90;;;;;;5069157;28;20078;-71
2023/01/04 00:16:09;;;;;;;9.05;2.65;;;8.10;99.90;;;;;;5068481;28;20072;-70
2023/01/04 00:18:36;;;;;;;5.53;2.90;;;8.00;99.90;;;;;;5068338;28;20044;-70
2023/01/04 00:21:09;;;;;;;6.75;2.90;;;8.00;99.90;;;;;;5048932;28;20051;-72
2023/01/04 00:23:36;;;;;;;8.05;2.58;;;8.00;99.90;;;;;;5068799;28;20044;-71
2023/01/04 00:26:05;;;;;;;7.78;2.85;;;8.00;99.90;;;;;;5049843;28;20071;-71
2023/01/04 00:28:30;;;;;;;10.07;2.58;;;7.90;99.90;;;;;;5052168;28;20072;-71
2023/01/04 00:31:01;;;;;;;6.95;2.60;;;7.90;99.90;;;;;;5050733;28;20079;-69
2023/01/04 00:33:27;;;;;;;8.15;2.70;;;7.90;99.90;;;;;;5052197;28;20037;-71
2023/01/04 00:35:52;;;;;;;12.18;2.50;;;7.80;99.90;;;;;;5067994;28;20053;-71
2023/01/04 00:38:18;;;;;;;9.15;2.72;;;7.80;99.90;;;;;;5068714;28;20055;-70
2023/01/04 00:40:43;;;;;;;8.77;2.85;;;7.70;99.90;;;;;;5068179;28;20047;-71
2023/01/04 00:43:09;;;;;;;6.25;2.47;;;7.80;99.90;;;;;;5065497;28;20062;-71
2023/01/04 00:45:35;;;;;;;6.57;2.30;;;7.70;99.90;;;;;;5066079;28;20040;-72
2023/01/04 00:48:00;;;;;;;5.93;2.42;;;7.70;99.90;;;;;;5066865;28;20076;-71
2023/01/04 00:50:26;;;;;;;6.65;2.55;;;7.70;99.90;;;;;;5066576;28;20463;-71
2023/01/04 00:52:54;;;;;;;9.48;2.63;;;7.70;99.90;;;;;;5067533;28;20131;-70
2023/01/04 00:55:20;;;;;;;10.00;2.83;;;7.70;99.90;;;;;;5066518;28;20110;-71
2023/01/04 00:57:46;;;;;;;6.63;2.53;;;7.70;99.90;;;;;;5065862;28;20032;-69
2023/01/04 01:00:12;;;;;;;8.27;3.03;;;7.70;99.90;;;;;;5051012;28;20058;-71
2023/01/04 01:02:38;;;;;;;10.27;2.65;;;7.70;99.90;;;;;;5064084;28;20380;-71
2023/01/04 01:05:04;;;;;;;8.15;3.00;;;7.70;99.90;;;;;;5067772;28;20123;-71
2023/01/04 01:07:29;;;;;;;5.15;2.95;;;7.70;99.90;;;;;;5069011;28;20036;-70
2023/01/04 01:09:55;;;;;;;5.75;2.70;;;7.70;99.90;;;;;;5066745;28;20111;-70
2023/01/04 01:12:20;;;;;;;6.30;2.60;;;7.70;99.90;;;;;;5068781;28;20559;-70
2023/01/04 01:14:46;;;;;;;8.45;2.70;;;7.70;99.90;;;;;;5068730;28;20131;-70
2023/01/04 01:17:12;;;;;;;9.93;2.50;;;7.70;99.90;;;;;;5069106;28;20089;-70
2023/01/04 01:19:37;;;;;;;8.63;2.45;;;7.70;99.90;;;;;;5052232;28;20060;-69
2023/01/04 01:22:03;;;;;;;9.65;2.80;;;7.70;99.90;;;;;;5068845;28;20039;-71
2023/01/04 01:24:28;;;;;;;5.53;2.60;;;7.70;99.90;;;;;;5068913;28;20045;-71
2023/01/04 01:26:55;;;;;;;4.45;2.10;;;7.70;99.90;;;;;;5069011;28;20376;-67
2023/01/04 01:29:20;;;;;;;9.43;2.65;;;7.70;99.90;;;;;;5068472;28;20109;-69
2023/01/04 01:31:46;;;;;;;8.45;2.78;;;7.70;99.90;;;;;;5068702;28;20555;-68
2023/01/04 01:34:12;;;;;;;7.45;2.65;;;7.70;99.90;;;;;;5066513;28;20395;-68
2023/01/04 01:36:37;;;;;;;5.05;2.50;;;7.70;99.90;;;;;;5067165;28;20037;-68
2023/01/04 01:39:04;;;;;;;7.82;2.55;;;7.70;99.90;;;;;;5067066;28;20041;-68
2023/01/04 01:41:33;;;;;;;6.45;3.00;;;7.70;99.90;;;;;;5068243;28;20068;-68
2023/01/04 01:44:36;;;;;;;5.32;2.28;;;7.70;99.90;;;;;;5066717;28;20037;-67
2023/01/04 01:47:02;;;;;;;5.10;2.50;;;7.70;99.90;;;;;;5067788;28;20052;-68
2023/01/04 01:49:32;;;;;;;7.80;2.58;;;7.80;99.90;;;;;;5050182;28;20045;-69
2023/01/04 01:52:02;;;;;;;5.95;2.08;;;7.80;99.90;;;;;;5067533;28;20048;-69
2023/01/04 01:54:41;;;;;;;4.80;2.30;;;7.80;99.90;;;;;;5082979;28;20081;-68
2023/01/04 01:57:10;;;;;;;3.88;2.33;;;7.80;99.90;;;;;;5068779;28;20084;-68
2023/01/04 01:59:41;;;;;;;5.97;2.88;;;7.80;99.90;;;;;;5065001;28;20918;-69
2023/01/04 02:02:07;;;;;;;5.97;2.17;;;7.80;99.90;;;;;;5066718;28;20094;-68
2023/01/04 02:04:35;;;;;;;7.10;2.13;;;7.80;99.90;;;;;;5051391;28;20047;-68
2023/01/04 02:07:02;;;;;;;4.28;1.90;;;7.80;99.90;;;;;;5066431;28;20049;-69
2023/01/04 02:09:30;;;;;;;3.25;1.70;;;7.80;99.90;;;;;;5069303;28;20040;-69
2023/01/04 02:11:56;;;;;;;5.13;2.22;;;7.90;99.90;;;;;;5055318;28;20056;-69
2023/01/04 02:14:27;;;;;;;4.93;1.90;;;7.80;99.90;;;;;;5070224;28;20404;-69
2023/01/04 02:17:05;;;;;;;3.47;1.42;;;7.90;99.90;;;;;;5054166;28;20037;-68
2023/01/04 02:20:09;;;;;;;5.03;1.50;;;7.90;99.90;;;;;;5071068;28;20041;-69
2023/01/04 02:23:12;;;;;;;3.50;1.65;;;8.00;99.90;;;;;;5070045;28;20115;-71
2023/01/04 02:25:52;;;;;;;4.32;1.60;;;8.00;99.90;;;;;;5069562;28;20058;-69
2023/01/04 02:28:27;;;;;;;2.75;1.55;;;8.00;99.90;;;;;;5055564;28;20041;-67
2023/01/04 02:31:15;;;;;;;3.28;1.52;;;8.00;99.90;;;;;;5053766;28;20044;-69
2023/01/04 02:34:07;;;;;;;4.28;1.60;;;8.10;99.90;;;;;;5066303;28;20056;-69
2023/01/04 02:36:56;;;;;;;3.38;1.80;;;8.10;99.90;;;;;;5067609;28;20037;-68
2023/01/04 02:39:46;;;;;;;2.25;1.70;;;8.10;99.90;;;;;;5070215;28;20040;-69
2023/01/04 02:44:51;;;;;;;3.65;1.63;;;8.10;99.90;;;;;;5071681;28;20036;-69
2023/01/04 02:45:21;;;;;;;4.05;1.70;;;8.10;99.90;;;;;;5066999;28;20040;-69
2023/01/04 02:50:39;;;;;;;5.28;1.80;;;8.20;99.90;;;;;;5070412;28;20124;-68
2023/01/04 02:53:17;;;;;;;3.40;1.92;;;8.20;99.90;;;;;;5051614;28;20051;-68
2023/01/04 02:56:04;;;;;;;4.05;1.50;;;8.20;99.90;;;;;;5080858;28;20412;-69
2023/01/04 02:59:02;;;;;;;3.40;1.83;;;8.30;99.90;;;;;;5069827;28;20116;-69
2023/01/04 03:08:14;;;;;;;3.85;1.60;;;8.30;99.90;;;;;;5071084;28;20130;-68
2023/01/04 03:10:52;;;;;;;4.10;1.70;;;8.40;99.90;;;;;;5071364;28;20040;-68
2023/01/04 03:13:28;;;;;;;3.75;1.80;;;8.40;99.90;;;;;;5071841;28;20377;-68
2023/01/04 03:16:00;;;;;;;3.15;1.55;;;8.50;99.90;;;;;;5071265;28;20044;-69
2023/01/04 03:18:36;;;;;;;2.65;1.80;;;8.60;99.90;;;;;;5070071;28;20060;-68
2023/01/04 03:21:04;;;;;;;5.25;2.30;;;8.60;99.90;;;;;;5071272;28;20036;-69
2023/01/04 03:35:53;;;;;;;3.10;2.20;;;8.90;99.90;;;;;;5011723;28;20053;-69
2023/01/04 03:50:48;;;;;;;2.72;2.50;;;9.10;99.90;;;;;;5012191;28;20068;-69
2023/01/04 03:53:14;;;;;;;3.13;2.72;;;9.10;99.90;;;;;;5012744;28;20112;-69
2023/01/04 03:55:41;;;;;;;5.20;2.75;;;9.10;99.90;;;;;;5013098;28;20201;-68
2023/01/04 03:58:07;;;;;;;2.60;2.40;;;9.10;99.90;;;;;;4995220;28;20424;-68
2023/01/04 04:00:33;;;;;;;3.40;2.70;;;9.10;99.90;;;;;;5011968;28;20054;-68
2023/01/04 04:03:06;;;;;;;2.85;2.60;;;9.20;99.90;;;;;;4995476;28;20049;-69
2023/01/04 04:08:28;;;;;;;3.63;3.03;;;9.20;99.90;;;;;;5065767;28;20109;-69
2023/01/04 04:13:47;;;;;;;3.50;3.20;;;9.30;99.90;;;;;;5068815;28;20052;-69
2023/01/04 04:16:13;;;;;;;3.38;3.08;;;9.30;99.90;;;;;;5052251;28;20063;-69
2023/01/04 04:18:39;;;;;;;4.05;3.65;;;9.30;99.90;;;;;;5069227;28;20040;-68
2023/01/04 04:21:04;;;;;;;3.67;3.30;;;9.30;99.90;;;;;;5068944;28;20033;-68
2023/01/04 04:23:30;;;;;;;3.47;3.17;;;9.30;99.90;;;;;;5069465;28;20034;-70
2023/01/04 04:25:56;;;;;;;3.78;3.47;;;9.40;99.90;;;;;;5063115;28;20045;-69
2023/01/04 04:28:21;;;;;;;4.35;3.35;;;9.40;99.90;;;;;;5068418;28;20497;-68
2023/01/04 04:30:51;;;;;;;3.88;3.58;;;9.50;99.90;;;;;;5065944;28;20529;-69
2023/01/04 04:33:16;;;;;;;4.13;3.75;;;9.50;99.90;;;;;;5068280;28;20127;-69
2023/01/04 04:35:42;;;;;;;4.40;4.00;;;9.50;99.90;;;;;;5068054;28;20127;-69
2023/01/04 04:38:08;;;;;;;4.63;4.18;;;9.50;99.90;;;;;;5066575;28;20032;-69
2023/01/04 04:43:18;;;;;;;4.88;4.47;;;9.50;99.90;;;;;;5064885;28;20051;-68
2023/01/04 04:45:43;;;;;;;5.97;4.38;;;9.60;99.90;;;;;;5068272;28;20406;-67
2023/01/04 04:48:09;;;;;;;5.05;4.47;;;9.60;99.90;;;;;;5065470;28;20487;-69
2023/01/04 04:50:34;;;;;;;5.13;4.63;;;9.60;99.90;;;;;;5069026;28;20063;-68
2023/01/04 04:53:00;;;;;;;5.50;4.57;;;9.60;99.90;;;;;;5064841;28;20568;-69
2023/01/04 04:55:26;;;;;;;5.10;4.47;;;9.60;99.90;;;;;;5065433;28;20537;-69
2023/01/04 04:57:52;;;;;;;5.28;4.82;;;9.70;99.90;;;;;;5067755;28;20043;-69
2023/01/04 05:00:17;;;;;;;5.45;4.65;;;9.70;99.90;;;;;;5068964;28;20056;-69
2023/01/04 05:02:43;;;;;;;6.15;5.65;;;9.70;99.90;;;;;;5066968;28;20044;-69
2023/01/04 05:05:08;;;;;;;5.93;5.43;;;9.80;99.90;;;;;;5080013;28;20075;-68
2023/01/04 05:07:34;;;;;;;6.40;5.78;;;9.80;99.90;;;;;;5067887;28;20081;-69
2023/01/04 05:10:00;;;;;;;6.93;6.22;;;9.80;99.90;;;;;;5052539;28;20109;-68
2023/01/04 05:15:10;;;;;;;7.57;6.03;;;9.90;99.90;;;;;;5069223;28;20450;-68
2023/01/04 05:17:36;;;;;;;7.15;6.47;;;9.90;99.90;;;;;;5069021;28;20106;-68
2023/01/04 05:20:02;;;;;;;7.00;6.40;;;9.90;99.90;;;;;;5069317;28;20040;-68
2023/01/04 05:22:28;;;;;;;7.45;6.75;;;9.90;99.90;;;;;;5069121;28;20032;-70
2023/01/04 05:24:53;;;;;;;7.30;6.60;;;10.00;99.90;;;;;;5069045;28;20128;-69
2023/01/04 05:27:19;;;;;;;9.57;7.00;;;10.00;99.90;;;;;;5069246;28;20499;-69
2023/01/04 05:32:29;;;;;;;8.55;6.30;;;10.00;99.90;;;;;;5069272;28;20071;-68
2023/01/04 05:34:54;;;;;;;10.15;6.70;;;10.10;99.90;;;;;;5068748;28;20040;-70
2023/01/04 05:37:20;;;;;;;6.88;6.05;;;10.10;99.90;;;;;;5069033;28;20383;-70
2023/01/04 05:39:46;;;;;;;7.38;6.13;;;10.20;99.90;;;;;;5067920;28;20032;-69
2023/01/04 05:42:26;;;;;;;6.57;5.85;;;10.20;99.90;;;;;;5068219;28;20070;-70
2023/01/04 05:44:57;;;;;;;7.93;6.15;;;10.20;99.90;;;;;;5051594;28;20045;-69
2023/01/04 05:47:23;;;;;;;7.03;5.50;;;10.20;99.90;;;;;;5073067;28;20117;-69
2023/01/04 05:49:49;;;;;;;9.20;5.55;;;10.30;99.90;;;;;;5071791;28;20060;-67
2023/01/04 05:52:15;;;;;;;7.13;6.00;;;10.30;99.90;;;;;;5072312;28;20521;-69
2023/01/04 05:54:41;;;;;;;5.80;5.28;;;10.30;99.90;;;;;;5070734;28;20120;-69
2023/01/04 05:57:07;;;;;;;6.10;4.85;;;10.30;99.90;;;;;;5071159;28;20410;-70
2023/01/04 05:59:33;;;;;;;5.78;5.22;;;10.30;99.90;;;;;;5069160;28;20098;-69
2023/01/04 06:01:59;;;;;;;6.40;4.75;;;10.30;99.90;;;;;;5072010;28;20482;-70
2023/01/04 06:04:24;;;;;;;7.15;5.38;;;10.30;99.90;;;;;;5070573;28;20491;-70
2023/01/04 06:06:50;;;;;;;8.13;4.88;;;10.30;99.90;;;;;;5072460;28;20048;-69
2023/01/04 06:09:16;;;;;;;9.68;4.53;;;10.30;99.90;;;;;;5069847;28;20047;-69
2023/01/04 06:11:41;;;;;;;6.53;4.55;;;10.30;99.90;;;;;;5071702;28;20067;-69
2023/01/04 06:14:07;;;;;;;7.25;4.43;;;10.40;99.90;;;;;;5070435;28;20047;-69
2023/01/04 06:16:33;;;;;;;7.65;4.72;;;10.40;99.90;;;;;;5068727;28;20044;-69
2023/01/04 06:18:58;;;;;;;4.25;3.83;;;10.30;99.90;;;;;;5067796;28;20044;-68
2023/01/04 06:21:24;;;;;;;7.43;3.90;;;10.40;99.90;;;;;;5072127;28;20024;-68
2023/01/04 06:23:51;;;;;;;3.85;3.45;;;10.40;99.90;;;;;;5070161;28;20361;-69
2023/01/04 06:26:16;;;;;;;6.00;3.88;;;10.40;99.90;;;;;;5069974;28;20033;-69
2023/01/04 06:28:42;;;;;;;4.47;3.47;;;10.40;99.90;;;;;;5070123;28;20044;-69
2023/01/04 06:31:09;;;;;;;6.25;3.42;;;10.40;99.90;;;;;;5068855;28;20045;-69
2023/01/04 06:33:35;;;;;;;4.47;3.40;;;10.40;99.90;;;;;;5070195;28;20554;-69
2023/01/04 06:36:01;;;;;;;4.13;3.10;;;10.40;99.90;;;;;;5067136;28;20032;-69
2023/01/04 06:38:27;;;;;;;3.28;2.97;;;10.40;99.90;;;;;;5069998;28;20032;-69
2023/01/04 06:40:53;;;;;;;3.58;2.92;;;10.40;99.90;;;;;;5069429;28;20532;-68
2023/01/04 06:43:18;;;;;;;4.65;3.00;;;10.40;99.90;;;;;;5054142;28;20132;-70
2023/01/04 06:45:44;;;;;;;2.85;2.58;;;10.40;99.90;;;;;;5066932;28;20043;-69
2023/01/04 06:48:10;;;;;;;2.80;2.60;;;10.40;99.90;;;;;;5070001;28;20399;-69
2023/01/04 06:50:36;;;;;;;3.45;2.65;;;10.40;99.90;;;;;;5070972;28;20458;-69
2023/01/04 06:53:01;;;;;;;2.70;2.50;;;10.40;99.90;;;;;;5070118;28;20033;-70
2023/01/04 06:55:28;;;;;;;3.13;2.40;;;10.50;99.90;;;;;;5071049;28;20291;-70
2023/01/04 06:57:55;;;;;;;3.65;2.65;;;10.50;99.90;;;;;;5071677;28;20074;-68
2023/01/04 07:00:20;;;;;;;3.00;2.67;;;10.40;99.90;;;;;;5071536;28;20044;-69
2023/01/04 07:02:46;;;;;;;3.38;2.72;;;10.50;99.90;;;;;;5071373;28;20040;-70
2023/01/04 07:05:12;;;;;;;3.75;3.05;;;10.40;99.90;;;;;;5071294;28;20040;-68
2023/01/04 07:07:38;;;;;;;4.13;3.22;;;10.50;99.90;;;;;;5053275;28;20471;-69
2023/01/04 07:10:05;;;;;;;3.60;3.30;;;10.50;99.90;;;;;;5070193;28;20048;-68
2023/01/04 07:12:31;;;;;;;3.83;3.40;;;10.50;99.90;;;;;;5052789;28;20063;-69
2023/01/04 07:14:57;;;;;;;4.30;3.90;;;10.50;99.90;;;;;;5071033;28;20102;-70
2023/01/04 07:17:23;;;;;;;4.15;3.75;;;10.50;99.90;;;;;;5070587;28;20036;-66
2023/01/04 07:19:49;;;;;;;4.10;3.38;;;10.50;99.90;;;;;;5052921;28;20035;-68
2023/01/04 07:22:15;;;;;;;4.07;3.67;;;10.50;99.90;;;;;;5082782;28;20032;-69
2023/01/04 07:24:42;;;;;;;3.80;3.50;;;10.50;99.90;;;;;;5071311;28;20063;-68
2023/01/04 07:27:11;;;;;;;3.70;3.40;;;10.50;99.90;;;;;;5070021;28;20119;-66
2023/01/04 07:29:37;;;;;;;3.75;3.40;;;10.50;99.90;;;;;;5070239;28;20123;-68
2023/01/04 07:32:03;;;;;;;4.10;3.70;;;10.50;99.90;;;;;;5068027;28;20055;-68
2023/01/04 07:34:30;;;;;;;4.55;3.65;;;10.50;99.90;;;;;;5066298;28;20090;-67
2023/01/04 07:36:55;;;;;;;5.07;3.67;;;10.50;99.90;;;;;;5069752;28;20048;-69
2023/01/04 07:39:21;;;;;;;5.40;3.97;;;10.50;99.90;;;;;;5070009;28;20494;-68
2023/01/04 07:41:48;;;;;;;4.10;3.70;;;10.50;99.90;;;;;;5069040;28;20033;-67
2023/01/04 07:44:14;;;;;;;4.57;4.07;;;10.40;99.90;;;;;;5068756;28;20047;-68
2023/01/04 07:46:41;;;;;;;4.68;4.20;;;10.50;99.90;;;;;;5070128;28;20051;-67
2023/01/04 07:49:12;;;;;;;4.72;4.20;;;10.50;99.90;;;;;;5065796;28;20040;-67
2023/01/04 07:51:37;;;;;;;5.03;4.53;;;10.50;99.90;;;;;;5066878;28;20040;-66
2023/01/04 07:54:03;;;;;;;5.30;4.80;;;10.50;99.90;;;;;;5069764;28;20060;-67
2023/01/04 07:56:29;;;;;;;5.00;4.50;;;10.50;99.90;;;;;;5070454;28;20502;-66
2023/01/04 07:58:56;;;;;;;7.15;5.57;;;10.50;99.90;;;;;;5070541;28;20121;-67
2023/01/04 08:01:23;;;;;;;6.18;5.45;;;10.60;99.90;;;;;;5070605;28;20081;-66
2023/01/04 08:03:50;;;;;;;6.43;5.75;;;10.50;99.90;;;;;;5069699;28;20056;-66
2023/01/04 08:06:17;;;;;;;7.22;5.60;;;10.50;99.90;;;;;;5049915;28;20049;-66
2023/01/04 08:08:43;;;;;;;7.60;6.50;;;10.50;99.90;;;;;;5068361;28;20055;-66
2023/01/04 08:11:16;;;;;;;6.97;5.25;;;10.60;99.90;;;;;;5069205;28;20480;-66
2023/01/04 08:13:42;;;;;;;7.20;5.07;;;10.50;99.90;;;;;;5068149;28;20032;-66
2023/01/04 08:16:17;;;;;;;7.28;5.43;;;10.50;99.90;;;;;;5070026;28;20039;-66
2023/01/04 08:18:42;;;;;;;7.97;5.95;;;10.60;99.90;;;;;;5070315;28;20387;-66
2023/01/04 08:21:08;;;;;;;7.32;5.38;;;10.60;99.90;;;;;;5069645;28;20089;-67
2023/01/04 08:23:35;;;;;;;7.68;5.85;;;10.60;99.90;;;;;;5068737;28;20040;-66
2023/01/04 08:26:11;;;;;;;6.82;5.22;;;10.70;99.90;;;;;;5069398;28;20048;-66
2023/01/04 08:28:37;;;;;;;6.60;5.63;;;10.70;99.90;;;;;;5069591;28;20036;-66
2023/01/04 08:31:05;;;;;;;6.53;5.60;;;10.70;99.90;;;;;;5069824;28;20048;-67
2023/01/04 08:33:35;;;;;;;8.15;5.68;;;10.70;99.90;;;;;;5051497;28;20054;-66
2023/01/04 08:36:23;;;;;;;7.72;5.10;;;10.60;99.90;;;;;;5067638;28;20036;-66
2023/01/04 08:38:50;;;;;;;6.57;4.80;;;10.70;99.90;;;;;;5070057;28;20072;-66
2023/01/04 08:41:17;;;;;;;7.07;4.20;;;10.70;99.90;;;;;;5069796;28;20044;-67
2023/01/04 08:43:43;;;;;;;6.07;4.50;;;10.70;99.90;;;;;;5052909;28;20118;-67
2023/01/04 08:46:10;;;;;;;6.30;4.25;;;10.70;99.90;;;;;;5052333;28;20040;-67
2023/01/04 08:48:37;;;;;;;5.82;4.30;;;10.70;99.90;;;;;;5069411;28;20580;-67
2023/01/04 08:51:06;;;;;;;5.72;4.18;;;10.70;99.90;;;;;;5069459;28;20048;-66
2023/01/04 08:53:32;;;;;;;5.97;4.25;;;10.70;99.90;;;;;;5069053;28;20460;-65
2023/01/04 08:55:59;;;;;;;4.82;4.32;;;10.70;99.90;;;;;;5068909;28;20094;-66
2023/01/04 08:58:26;;;;;;;5.80;3.97;;;10.70;99.90;;;;;;5069002;28;20051;-66
2023/01/04 09:00:53;;;;;;;4.40;3.72;;;10.70;99.90;;;;;;5069364;28;20487;-66
2023/01/04 09:03:18;;;;;;;4.18;3.78;;;10.70;99.90;;;;;;5068912;28;20036;-66
2023/01/04 09:05:45;;;;;;;4.65;3.80;;;10.80;99.90;;;;;;5068928;28;20499;-66
2023/01/04 09:08:10;;;;;;;4.57;3.25;;;10.80;99.90;;;;;;5068331;28;20048;-66
2023/01/04 09:10:38;;;;;;;3.50;3.20;;;10.80;99.90;;;;;;5051159;28;20474;-66
2023/01/04 09:13:04;;;;;;;5.45;3.10;;;10.80;99.90;;;;;;5068561;28;20037;-66
2023/01/04 09:15:31;;;;;;;3.80;3.20;;;10.70;99.90;;;;;;5067001;28;20032;-67
2023/01/04 09:17:57;;;;;;;4.15;3.13;;;10.80;99.90;;;;;;5066810;28;20036;-66
2023/01/04 09:20:23;;;;;;;3.42;2.80;;;10.70;99.90;;;;;;5068183;28;20094;-66
2023/01/04 09:22:48;;;;;;;4.13;2.42;;;10.70;99.90;;;;;;5068312;28;20045;-67
2023/01/04 09:25:14;;;;;;;4.35;2.60;;;10.70;99.90;;;;;;5066853;28;20032;-66
2023/01/04 09:27:40;;;;;;;2.50;2.15;;;10.70;99.90;;;;;;5068223;28;20037;-66
2023/01/04 09:30:06;;;;;;;3.00;1.70;;;10.70;99.90;;;;;;5049105;28;20052;-67
2023/01/04 09:32:32;;;;;;;2.50;1.90;;;10.70;99.90;;;;;;5051277;28;20044;-67
2023/01/04 09:34:58;;;;;;;2.30;1.90;;;10.80;99.90;;;;;;5069126;28;20479;-68
2023/01/04 09:37:23;;;;;;;2.47;1.75;;;10.80;99.90;;;;;;5067393;28;20072;-66
2023/01/04 09:39:49;;;;;;;2.95;1.80;;;10.80;99.90;;;;;;5068379;28;20036;-66
2023/01/04 09:42:22;;;;;;;2.80;1.35;;;10.80;99.90;;;;;;5068910;28;20024;-67
2023/01/04 09:45:00;;;;;;;1.52;1.35;;;10.80;99.90;;;;;;5067797;28;20063;-66
2023/01/04 09:47:32;;;;;;;2.80;1.20;;;10.80;99.90;;;;;;5067168;28;20047;-66
2023/01/04 09:50:01;;;;;;;2.38;1.55;;;10.80;99.90;;;;;;5052479;28;20049;-66
2023/01/04 09:52:43;;;;;;;1.63;1.35;;;10.80;99.90;;;;;;5068485;28;20124;-67
2023/01/04 09:55:48;;;;;;;2.40;1.15;;;10.80;99.90;;;;;;5067945;28;20048;-66
2023/01/04 09:58:25;;;;;;;1.58;1.10;;;10.80;99.90;;;;;;5006861;28;20046;-66
2023/01/04 10:01:03;;;;;;;1.38;1.02;;;10.90;99.90;;;;;;5016563;28;20046;-67
2023/01/04 10:03:37;;;;;;;2.38;1.08;;;10.90;99.90;;;;;;4994068;28;20072;-67
2023/01/04 10:06:04;;;;;;;1.50;1.20;;;10.90;99.90;;;;;;4993233;28;20050;-67
2023/01/04 10:08:30;;;;;;;2.08;1.10;;;10.90;99.90;;;;;;5011337;28;20447;-67
2023/01/04 10:11:14;;;;;;;2.67;1.65;;;11.00;99.90;;;;;;5011108;28;20053;-68
2023/01/04 10:14:10;;;;;;;1.63;1.20;;;11.00;99.90;;;;;;5009980;28;20045;-66
2023/01/04 10:17:19;;;;;;;1.73;1.40;;;11.00;99.90;;;;;;5005897;28;20037;-67
2023/01/04 10:20:16;;;;;;;4.13;1.60;;;11.00;99.90;;;;;;4945967;29;20114;-66
2023/01/04 10:22:51;;;;;;;4.90;1.60;;;11.00;99.90;;;;;;4853633;29;20054;-67
2023/01/04 10:25:25;;;;;;;4.85;1.80;;;11.10;99.90;;;;;;4853380;29;20050;-67
2023/01/04 10:28:16;;;;;;;8.02;1.75;;;11.10;99.90;;;;;;4839259;29;20041;-67
2023/01/04 10:31:16;;;;;;;8.88;2.17;;;11.20;99.90;;;;;;4840113;29;20060;-67
2023/01/04 10:33:52;;;;;;;12.30;2.22;;;11.30;99.90;;;;;;4897148;29;20066;-67
2023/01/04 10:36:25;;;;;;;9.90;2.28;;;11.30;99.90;;;;;;4898979;29;20044;-67
2023/01/04 10:39:20;;;;;;;10.77;2.30;;;11.30;99.90;;;;;;4898956;29;20095;-67
2023/01/04 10:41:55;;;;;;;12.48;2.17;;;11.40;99.90;;;;;;4912347;29;20116;-67
2023/01/04 10:44:43;;;;;;;8.98;2.05;;;11.50;99.90;;;;;;4898483;29;20111;-67
2023/01/04 10:47:18;;;;;;;13.75;2.47;;;11.50;99.90;;;;;;4878349;29;20184;-66
2023/01/04 10:49:56;;;;;;;9.98;1.95;;;11.50;99.90;;;;;;4896645;29;20052;-67
2023/01/04 10:52:35;;;;;;;12.23;2.22;;;11.50;99.90;;;;;;4898756;29;20127;-67
2023/01/04 10:55:10;;;;;;;12.20;2.20;;;11.60;99.90;;;;;;4914735;29;20078;-68
2023/01/04 10:57:41;;;;;;;9.70;2.25;;;11.60;99.90;;;;;;4975634;28;20052;-67
2023/01/04 11:00:14;;;;;;;10.75;2.47;;;11.60;99.90;;;;;;5069859;28;20044;-68
2023/01/04 11:02:49;;;;;;;9.57;2.30;;;11.70;99.90;;;;;;5069348;28;20036;-66
2023/01/04 11:05:29;;;;;;;6.45;1.70;;;11.70;99.90;;;;;;5068401;28;20041;-67
2023/01/04 11:08:01;;;;;;;9.00;1.88;;;11.80;99.90;;;;;;5053338;28;20775;-67
2023/01/04 11:10:39;;;;;;;13.75;4.20;;;11.80;99.90;;;;;;5069528;28;20145;-68
2023/01/04 11:13:05;;;;;;;11.20;3.00;;;11.80;99.90;;;;;;5069579;28;20056;-67
2023/01/04 11:15:31;;;;;;;8.77;1.80;;;11.80;99.90;;;;;;5070188;28;20082;-66
2023/01/04 11:18:01;;;;;;;9.55;2.85;;;11.90;99.90;;;;;;5069792;28;20698;-67
2023/01/04 11:20:28;;;;;;;10.05;2.05;;;11.90;99.90;;;;;;5070744;28;20087;-67
2023/01/04 11:23:00;;;;;;;13.60;2.45;;;11.90;99.90;;;;;;5066636;28;20055;-68
2023/01/04 11:25:30;;;;;;;17.17;2.50;;;11.90;99.90;;;;;;5071188;28;20165;-68
2023/01/04 11:28:01;;;;;;;11.07;1.92;;;11.90;99.90;;;;;;5052941;28;20056;-67
2023/01/04 11:30:56;;;;;;;7.78;1.83;;;12.00;99.90;;;;;;5069314;28;20068;-69
2023/01/04 11:33:23;;;;;;;11.10;2.42;;;12.00;99.90;;;;;;5069505;28;20047;-66
2023/01/04 11:35:52;;;;;;;11.00;2.35;;;12.00;99.90;;;;;;5070902;28;20037;-67
2023/01/04 11:38:23;;;;;;;12.80;2.55;;;12.00;99.90;;;;;;5067943;28;20044;-68
2023/01/04 11:41:06;;;;;;;12.90;2.13;;;12.10;99.90;;;;;;5070070;28;20040;-67
2023/01/04 11:43:33;;;;;;;;;;;12.10;99.90;;;;;;5068382;28;20041;-68
2023/01/04 11:46:26;;;;;;;16.88;2.65;;;12.10;99.90;;;;;;5070588;28;19927;-67
2023/01/04 11:48:52;;;;;;;13.02;2.33;;;12.10;99.90;;;;;;5065590;28;20472;-68
2023/01/04 11:51:30;;;;;;;15.13;2.85;;;12.10;99.90;;;;;;5069601;28;20040;-67
2023/01/04 11:54:12;;;;;;;12.05;3.20;;;12.10;99.90;;;;;;5067207;28;20056;-67
2023/01/04 11:56:38;;;;;;;11.88;2.17;;;12.10;99.90;;;;;;5068373;28;20115;-66
2023/01/04 11:59:07;;;;;;;10.90;1.95;;;12.10;99.90;;;;;;5070401;28;20372;-67
2023/01/04 12:01:36;;;;;;;11.98;2.08;;;12.10;99.90;;;;;;5070276;28;20056;-67
2023/01/04 12:04:03;;;;;;;9.38;2.38;;;12.10;99.90;;;;;;5068693;28;20091;-68
2023/01/04 12:06:54;;;;;;;11.95;2.50;;;12.10;99.90;;;;;;5065501;28;20048;-67
2023/01/04 12:09:20;;;;;;;9.93;2.03;;;12.10;99.90;;;;;;5069424;28;20048;-66
2023/01/04 12:11:49;;;;;;;9.73;1.85;;;12.10;99.90;;;;;;5069541;28;20040;-66
2023/01/04 12:14:36;;;;;;;5.85;1.20;;;12.10;99.90;;;;;;5066675;28;20110;-67
2023/01/04 12:17:20;;;;;;;4.53;1.10;;;12.10;99.90;;;;;;5067209;28;20041;-67
2023/01/04 12:19:47;;;;;;;4.82;1.00;;;12.10;99.90;;;;;;5066378;28;20028;-67
2023/01/04 12:22:28;;;;;;;4.65;1.00;;;12.00;99.90;;;;;;5069112;28;20032;-67
2023/01/04 12:24:54;;;;;;;3.80;0.88;;;12.00;99.90;;;;;;5078313;28;20048;-67
2023/01/04 12:27:20;;;;;;;4.72;1.00;;;11.90;99.90;;;;;;5069849;28;20097;-66
2023/01/04 12:29:58;;;;;;;5.30;0.90;;;11.90;99.90;;;;;;5052397;28;20123;-68
2023/01/04 12:32:27;;;;;;;2.83;1.02;;;11.90;99.90;;;;;;5053433;28;20507;-68
2023/01/04 12:34:53;;;;;;;4.15;0.90;;;11.90;99.90;;;;;;5052855;28;20051;-69
2023/01/04 12:37:44;;;;;;;4.10;1.02;;;11.90;99.90;;;;;;5069870;28;20087;-68
2023/01/04 12:40:45;;;;;;;2.88;1.08;;;11.90;99.90;;;;;;5069193;28;20121;-70
2023/01/04 12:43:13;;;;;;;4.57;1.00;;;11.90;99.90;;;;;;5069270;28;20119;-68
2023/01/04 12:45:40;;;;;;;6.63;0.98;;;11.90;99.90;;;;;;5069489;28;20116;-70
2023/01/04 12:51:25;;;;;;;5.60;1.48;;;11.90;99.90;;;;;;5068049;28;20511;-67
2023/01/04 12:53:57;;;;;;;6.70;1.83;;;11.90;99.90;;;;;;5068667;28;20056;-66
2023/01/04 12:57:01;;;;;;;6.07;1.35;;;12.00;99.90;;;;;;5065677;28;20060;-67
2023/01/04 12:59:32;;;;;;;9.43;1.60;;;11.90;99.90;;;;;;5082156;28;20078;-66
2023/01/04 13:02:28;;;;;;;10.13;2.30;;;12.00;99.90;;;;;;5066707;28;20040;-66
2023/01/04 13:05:00;;;;;;;12.05;2.22;;;12.00;99.90;;;;;;5052643;28;20060;-65
2023/01/04 13:07:38;;;;;;;13.23;2.83;;;12.00;99.90;;;;;;5051672;28;20079;-70
2023/01/04 13:10:26;;;;;;;10.95;2.17;;;12.00;99.90;;;;;;5067077;28;20052;-68
2023/01/04 13:13:06;;;;;;;13.07;2.30;;;12.00;99.90;;;;;;5064392;28;20032;-67
2023/01/04 13:16:16;;;;;;;12.48;2.53;;;12.00;99.90;;;;;;5064443;28;20063;-66
2023/01/04 13:18:53;;;;;;;11.73;2.22;;;12.00;99.90;;;;;;5065220;28;20394;-67
2023/01/04 13:21:40;;;;;;;11.23;1.95;;;12.00;99.90;;;;;;5068273;28;20035;-69
2023/01/04 13:24:30;;;;;;;11.80;2.17;;;12.00;99.90;;;;;;5069252;28;20066;-66
2023/01/04 13:27:04;;;;;;;13.98;2.95;;;12.00;99.90;;;;;;5051086;28;20067;-67
2023/01/04 13:29:32;;;;;;;11.13;2.25;;;12.00;99.90;;;;;;5051643;28;20094;-67
2023/01/04 13:32:02;;;;;;;13.35;2.67;;;12.00;99.90;;;;;;5069225;28;20403;-67
2023/01/04 13:34:36;;;;;;;14.00;2.38;;;12.00;99.90;;;;;;5065769;28;20037;-65
2023/01/04 13:37:12;;;;;;;11.88;2.25;;;12.00;99.90;;;;;;5052532;28;20079;-65
2023/01/04 13:39:45;;;;;;;15.60;2.60;;;12.00;99.90;;;;;;5063198;28;20825;-65
2023/01/04 13:42:28;;;;;;;18.08;3.35;;;12.00;99.90;;;;;;5068367;28;20071;-66
2023/01/04 13:45:28;;;;;;;16.02;2.70;;;12.00;99.90;;;;;;5067365;28;20044;-68
2023/01/04 13:48:00;;;;;;;14.93;2.55;;;12.00;99.90;;;;;;5057376;28;20048;-65
2023/01/04 13:50:34;;;;;;;13.45;2.00;;;11.90;99.90;;;;;;5050536;28;20048;-67
2023/01/04 13:53:00;;;;;;;14.77;2.78;;;12.00;99.90;;;;;;5051625;28;20044;-65
2023/01/04 13:55:32;;;;;;;17.35;3.55;;;12.00;99.90;;;;;;5063195;28;20045;-67
2023/01/04 13:57:59;;;;;;;12.23;2.30;;;11.90;99.90;;;;;;5068048;28;20117;-65
2023/01/04 14:00:28;;;;;;;14.00;2.83;;;12.00;99.90;;;;;;5063865;28;20043;-66